createdAt,value
2022-09-04T00:01:52.932Z,101557.47
2022-09-04T00:04:30.592Z,101456.69
2022-09-04T00:07:08.355Z,101473.09
2022-09-04T00:09:42.941Z,101500.78
2022-09-04T00:12:12.010Z,101560.53
2022-09-04T00:14:45.358Z,101552.31
2022-09-04T00:17:20.245Z,101468.84
2022-09-04T00:19:54.374Z,101438.84
2022-09-04T00:22:30.716Z,101550.41
2022-09-04T00:25:15.632Z,101558.59
2022-09-04T00:27:48.401Z,101529.97
2022-09-04T00:30:19.002Z,101563.38
2022-09-04T00:32:52.685Z,101565.16
2022-09-04T00:35:27.651Z,101558.69
2022-09-04T00:38:02.336Z,101429.47
2022-09-04T00:40:33.338Z,101467.78
2022-09-04T00:43:26.092Z,101574.97
2022-09-04T00:46:13.742Z,101460.25
2022-09-04T00:49:18.950Z,101419.03
2022-09-04T00:51:55.147Z,101546.66
2022-09-04T00:54:39.785Z,101581.63
2022-09-04T00:57:37.622Z,101540.28
2022-09-04T01:00:09.176Z,101596.28
2022-09-04T01:02:56.487Z,101482.81
2022-09-04T01:05:39.955Z,101428.81
2022-09-04T01:08:21.087Z,101586.94
2022-09-04T01:11:00.915Z,101467.31
2022-09-04T01:13:35.564Z,101568.66
2022-09-04T01:16:09.378Z,101588.44
2022-09-04T01:18:47.515Z,101565.84
2022-09-04T01:21:29.929Z,101502.69
2022-09-04T01:24:34.392Z,101561.63
2022-09-04T01:27:08.118Z,101446.66
2022-09-04T01:29:47.003Z,101527.75
2022-09-04T01:32:29.646Z,101448.78
2022-09-04T01:35:05.456Z,101642.31
2022-09-04T01:37:43.889Z,101582.84
2022-09-04T01:40:35.749Z,101635.63
2022-09-04T01:43:09.446Z,101629.84
2022-09-04T01:45:57.553Z,101563.81
2022-09-04T01:48:39.149Z,101632.09
2022-09-04T01:51:09.371Z,101626.25
2022-09-04T01:53:42.274Z,101551.50
2022-09-04T01:56:15.947Z,101593.25
2022-09-04T01:58:52.913Z,101629.06
2022-09-04T02:01:31.873Z,101595.06
2022-09-04T02:04:05.551Z,101488.28
2022-09-04T02:06:40.321Z,101538.78
2022-09-04T02:09:19.397Z,101631.41
2022-09-04T02:11:56.851Z,101637.44
2022-09-04T02:14:39.901Z,101568.66
2022-09-04T02:17:11.032Z,101555.38
2022-09-04T02:19:59.061Z,101627.13
2022-09-04T02:22:44.517Z,101539.38
2022-09-04T02:25:24.731Z,101605.44
2022-09-04T02:28:01.191Z,101629.50
2022-09-04T02:30:36.075Z,101597.13
2022-09-04T02:33:09.803Z,101644.03
2022-09-04T02:35:43.854Z,101563.00
2022-09-04T02:38:21.959Z,101647.97
2022-09-04T02:40:52.555Z,101586.91
2022-09-04T02:43:38.239Z,101467.66
2022-09-04T02:46:16.811Z,101610.03
2022-09-04T02:49:00.512Z,101457.94
2022-09-04T02:51:42.544Z,101560.69
2022-09-04T02:54:19.944Z,101481.03
2022-09-04T02:57:00.088Z,101641.69
2022-09-04T02:59:41.448Z,101645.78
2022-09-04T03:02:19.307Z,101641.75
2022-09-04T03:04:52.720Z,101577.25
2022-09-04T03:07:27.843Z,101623.13
2022-09-04T03:10:05.910Z,101651.63
2022-09-04T03:12:40.167Z,101598.25
2022-09-04T03:15:17.937Z,101654.91
2022-09-04T03:17:51.442Z,101478.19
2022-09-04T03:20:24.292Z,101474.94
2022-09-04T03:23:00.552Z,101604.13
2022-09-04T03:25:48.936Z,101578.31
2022-09-04T03:28:23.898Z,101484.28
2022-09-04T03:30:52.615Z,101621.81
2022-09-04T03:33:30.541Z,101588.47
2022-09-04T03:36:03.102Z,101629.75
2022-09-04T03:38:37.435Z,101689.56
2022-09-04T03:41:13.799Z,101506.94
2022-09-04T03:44:06.783Z,101542.53
2022-09-04T03:46:45.452Z,101632.31
2022-09-04T03:49:23.190Z,101606.91
2022-09-04T03:52:00.212Z,101619.59
2022-09-04T03:54:50.158Z,101501.06
2022-09-04T03:57:31.879Z,101538.03
2022-09-04T04:00:09.243Z,101681.78
2022-09-04T04:02:53.810Z,101516.81
2022-09-04T04:05:26.841Z,101602.34
2022-09-04T04:08:09.781Z,101663.13
2022-09-04T04:10:49.391Z,101565.44
2022-09-04T04:13:36.897Z,101695.16
2022-09-04T04:16:24.830Z,101683.19
2022-09-04T04:19:08.685Z,101526.84
2022-09-04T04:21:48.745Z,101637.66
2022-09-04T04:24:35.483Z,101712.53
2022-09-04T04:27:18.129Z,101500.34
2022-09-04T04:30:00.673Z,101563.84
2022-09-04T04:32:43.142Z,101580.72
2022-09-04T04:35:23.968Z,101655.25
2022-09-04T04:38:04.389Z,101542.66
2022-09-04T04:40:55.294Z,101618.66
2022-09-04T04:43:31.360Z,101553.28
2022-09-04T04:46:04.792Z,101573.69
2022-09-04T04:49:02.904Z,101693.69
2022-09-04T04:51:49.330Z,101595.44
2022-09-04T04:54:40.849Z,101666.03
2022-09-04T04:57:24.988Z,101670.94
2022-09-04T05:00:02.717Z,101702.72
2022-09-04T05:02:37.827Z,101751.63
2022-09-04T05:05:13.369Z,101662.31
2022-09-04T05:07:48.272Z,101642.25
2022-09-04T05:10:20.242Z,101752.75
2022-09-04T05:13:03.604Z,101577.34
2022-09-04T05:15:53.001Z,101575.53
2022-09-04T05:18:31.629Z,101547.56
2022-09-04T05:21:08.882Z,101616.78
2022-09-04T05:23:41.792Z,101581.47
2022-09-04T05:26:19.439Z,101585.28
2022-09-04T05:28:56.160Z,101670.03
2022-09-04T05:31:37.741Z,101785.19
2022-09-04T05:34:10.109Z,101667.03
2022-09-04T05:36:49.853Z,101612.13
2022-09-04T05:39:27.184Z,101605.38
2022-09-04T05:42:08.766Z,101712.31
2022-09-04T05:44:47.232Z,101728.63
2022-09-04T05:47:31.407Z,101763.91
2022-09-04T05:50:14.190Z,101811.56
2022-09-04T05:53:04.281Z,101795.75
2022-09-04T05:56:03.824Z,101788.94
2022-09-04T05:58:54.096Z,101794.59
2022-09-04T06:01:35.845Z,101791.88
2022-09-04T06:04:39.176Z,101768.19
2022-09-04T06:07:12.198Z,101626.19
2022-09-04T06:09:58.667Z,101608.28
2022-09-04T06:12:47.314Z,101725.88
2022-09-04T06:15:36.417Z,101685.94
2022-09-04T06:18:38.548Z,101813.31
2022-09-04T06:21:16.080Z,101744.53
2022-09-04T06:24:07.464Z,101798.38
2022-09-04T06:26:50.565Z,101655.72
2022-09-04T06:29:37.623Z,101713.47
2022-09-04T06:32:40.125Z,101801.72
2022-09-04T06:35:35.412Z,101816.19
2022-09-04T06:38:13.751Z,101681.19
2022-09-04T06:40:52.357Z,101710.97
2022-09-04T06:43:29.742Z,101790.06
2022-09-04T06:46:09.439Z,101767.25
2022-09-04T06:48:50.379Z,101762.06
2022-09-04T06:51:29.628Z,101698.75
2022-09-04T06:54:09.371Z,101671.53
2022-09-04T06:56:54.551Z,101713.06
2022-09-04T06:59:42.014Z,101853.69
2022-09-04T07:02:25.981Z,101679.84
2022-09-04T07:05:04.057Z,101744.09
2022-09-04T07:07:39.154Z,101839.59
2022-09-04T07:10:12.718Z,101851.53
2022-09-04T07:13:14.854Z,101834.97
2022-09-04T07:16:05.815Z,101766.47
2022-09-04T07:18:52.421Z,101763.91
2022-09-04T07:21:27.770Z,101746.34
2022-09-04T07:24:04.911Z,101839.91
2022-09-04T07:26:42.793Z,101832.25
2022-09-04T07:29:26.070Z,101706.72
2022-09-04T07:32:02.004Z,101851.00
2022-09-04T07:34:39.780Z,101856.31
2022-09-04T07:37:28.894Z,101679.59
2022-09-04T07:40:06.819Z,101849.56
2022-09-04T07:42:44.365Z,101833.69
2022-09-04T07:45:22.185Z,101857.28
2022-09-04T07:47:57.632Z,101869.06
2022-09-04T07:50:33.032Z,101803.28
2022-09-04T07:53:25.582Z,101804.97
2022-09-04T07:55:59.754Z,101874.16
2022-09-04T07:58:47.577Z,101868.31
2022-09-04T08:01:43.952Z,101828.13
2022-09-04T08:04:30.978Z,101820.34
2022-09-04T08:07:00.672Z,101810.94
2022-09-04T08:09:43.492Z,101789.41
2022-09-04T08:12:48.520Z,101862.19
2022-09-04T08:15:19.883Z,101859.66
2022-09-04T08:18:13.779Z,101878.09
2022-09-04T08:20:49.215Z,101886.03
2022-09-04T08:23:42.559Z,101853.22
2022-09-04T08:26:19.303Z,101788.47
2022-09-04T08:29:09.195Z,101821.41
2022-09-04T08:31:41.906Z,101794.41
2022-09-04T08:34:34.760Z,101894.38
2022-09-04T08:37:13.126Z,101887.44
2022-09-04T08:39:58.021Z,101871.97
2022-09-04T08:42:51.681Z,101911.38
2022-09-04T08:45:50.590Z,101855.47
2022-09-04T08:48:39.482Z,101859.81
2022-09-04T08:51:36.764Z,101840.94
2022-09-04T08:54:32.083Z,101886.69
2022-09-04T08:57:37.104Z,101919.03
2022-09-04T09:00:10.067Z,101811.53
2022-09-04T09:03:20.682Z,101914.97
2022-09-04T09:06:15.224Z,101887.47
2022-09-04T09:09:29.675Z,101902.78
2022-09-04T09:12:40.734Z,101901.88
2022-09-04T09:15:43.808Z,101838.09
2022-09-04T09:18:33.818Z,101892.22
2022-09-04T09:21:06.891Z,101868.09
2022-09-04T09:23:39.496Z,101863.25
2022-09-04T09:26:26.118Z,101898.28
2022-09-04T09:29:27.401Z,101876.22
2022-09-04T09:32:45.118Z,101852.75
2022-09-04T09:35:50.395Z,101825.16
2022-09-04T09:39:06.245Z,101880.41
2022-09-04T09:41:54.542Z,101838.44
2022-09-04T09:45:11.057Z,101854.25
2022-09-04T09:48:11.499Z,101882.88
2022-09-04T09:51:06.418Z,101898.09
2022-09-04T09:54:11.897Z,101890.31
2022-09-04T09:57:02.060Z,101807.16
2022-09-04T09:59:58.268Z,101817.28
2022-09-04T10:03:04.080Z,101883.78
2022-09-04T10:06:18.121Z,101816.34
2022-09-04T10:09:22.066Z,101790.53
2022-09-04T10:12:18.186Z,101894.09
2022-09-04T10:15:27.887Z,101885.06
2022-09-04T10:18:42.920Z,101891.31
2022-09-04T10:21:35.663Z,101864.59
2022-09-04T10:24:36.203Z,101893.25
2022-09-04T10:27:43.807Z,101876.69
2022-09-04T10:30:15.181Z,101882.09
2022-09-04T10:33:19.534Z,101893.59
2022-09-04T10:36:00.700Z,101884.41
2022-09-04T10:38:39.172Z,101884.75
2022-09-04T10:41:29.203Z,101845.00
2022-09-04T10:44:12.861Z,101878.31
2022-09-04T10:46:52.404Z,101884.66
2022-09-04T10:50:05.822Z,101878.47
2022-09-04T10:53:27.145Z,101777.09
2022-09-04T10:56:24.581Z,101734.13
2022-09-04T10:59:18.477Z,101809.31
2022-09-04T11:02:27.251Z,101842.41
2022-09-04T11:05:21.530Z,101885.25
2022-09-04T11:08:06.019Z,101791.53
2022-09-04T11:11:04.851Z,101823.34
2022-09-04T11:13:59.829Z,101874.75
2022-09-04T11:16:58.102Z,101850.63
2022-09-04T11:20:08.434Z,101770.00
2022-09-04T11:23:12.988Z,101876.84
2022-09-04T11:26:03.681Z,101874.19
2022-09-04T11:28:50.731Z,101876.31
2022-09-04T11:31:32.421Z,101840.28
2022-09-04T11:34:43.056Z,101827.41
2022-09-04T11:37:39.582Z,101759.69
2022-09-04T11:41:02.135Z,101896.75
2022-09-04T11:48:09.101Z,101778.00
2022-09-04T11:51:02.531Z,101845.28
2022-09-04T11:53:58.816Z,101755.38
2022-09-04T11:57:11.093Z,101770.72
2022-09-04T12:00:06.046Z,101841.34
2022-09-04T12:06:23.932Z,101829.38
2022-09-04T12:09:30.370Z,101884.47
2022-09-04T12:12:25.731Z,101893.81
2022-09-04T12:15:12.898Z,101889.16
2022-09-04T12:18:16.356Z,101763.09
2022-09-04T12:21:32.468Z,101824.72
2022-09-04T12:24:25.899Z,101879.22
2022-09-04T12:27:21.787Z,101873.69
2022-09-04T12:30:05.396Z,101797.88
2022-09-04T12:33:00.570Z,101881.06
2022-09-04T12:35:55.338Z,101877.50
2022-09-04T12:39:01.132Z,101796.91
2022-09-04T12:41:35.160Z,101891.16
2022-09-04T12:44:11.204Z,101896.03
2022-09-04T12:46:52.585Z,101901.69
2022-09-04T12:49:34.699Z,101898.47
2022-09-04T12:52:13.970Z,101904.94
2022-09-04T12:54:51.898Z,101896.06
2022-09-04T12:57:29.960Z,101895.19
2022-09-04T13:00:04.509Z,101896.72
2022-09-04T13:02:40.458Z,101907.78
2022-09-04T13:05:30.085Z,101904.09
2022-09-04T13:08:05.869Z,101905.59
2022-09-04T13:10:43.893Z,101898.38
2022-09-04T13:13:23.482Z,101909.13
2022-09-04T13:15:58.358Z,101898.75
2022-09-04T13:18:42.841Z,101894.66
2022-09-04T13:21:24.245Z,101901.06
2022-09-04T13:24:16.173Z,101890.50
2022-09-04T13:26:59.694Z,101910.31
2022-09-04T13:29:34.758Z,101915.50
2022-09-04T13:32:28.211Z,101899.03
2022-09-04T13:35:12.317Z,101900.41
2022-09-04T13:37:56.487Z,101910.00
2022-09-04T13:40:46.945Z,101906.03
2022-09-04T13:43:51.195Z,101901.69
2022-09-04T13:46:21.157Z,101903.44
2022-09-04T13:48:53.063Z,101902.78
2022-09-04T13:51:24.820Z,101907.72
2022-09-04T13:54:06.757Z,101903.78
2022-09-04T13:56:38.526Z,101876.09
2022-09-04T13:59:09.542Z,101908.53
2022-09-04T14:01:39.840Z,101908.53
2022-09-04T14:04:11.610Z,101910.09
2022-09-04T14:06:39.441Z,101899.63
2022-09-04T14:09:07.560Z,101903.97
2022-09-04T14:12:04.307Z,101903.41
2022-09-04T14:15:18.435Z,101904.38
2022-09-04T14:17:55.309Z,101919.25
2022-09-04T14:20:26.448Z,101916.81
2022-09-04T14:23:04.166Z,101917.66
2022-09-04T14:25:40.459Z,101916.19
2022-09-04T14:28:19.518Z,101907.47
2022-09-04T14:30:59.666Z,101902.66
2022-09-04T14:33:35.507Z,101912.25
2022-09-04T14:36:15.816Z,101909.81
2022-09-04T14:38:57.097Z,101912.91
2022-09-04T14:41:39.709Z,101913.25
2022-09-04T14:44:19.079Z,101905.69
2022-09-04T14:46:57.328Z,101901.28
2022-09-04T14:49:27.585Z,101910.56
2022-09-04T14:51:56.040Z,101897.88
2022-09-04T14:54:28.379Z,101901.25
2022-09-04T14:57:00.084Z,101895.78
2022-09-04T14:59:34.131Z,101893.50
2022-09-04T15:02:25.324Z,101899.84
2022-09-04T15:05:01.029Z,101900.22
2022-09-04T15:07:49.620Z,101890.31
2022-09-04T15:10:21.347Z,101900.75
2022-09-04T15:12:55.607Z,101877.09
2022-09-04T15:15:29.288Z,101884.75
2022-09-04T15:18:04.223Z,101890.88
2022-09-04T15:20:38.053Z,101882.44
2022-09-04T15:23:14.365Z,101892.88
2022-09-04T15:25:59.736Z,101903.19
2022-09-04T15:28:32.292Z,101888.66
2022-09-04T15:31:08.067Z,101905.34
2022-09-04T15:33:37.443Z,101898.13
2022-09-04T15:36:14.638Z,101897.34
2022-09-04T15:38:48.123Z,101897.66
2022-09-04T15:41:18.756Z,101909.94
2022-09-04T15:43:47.911Z,101900.41
2022-09-04T15:46:22.458Z,101902.72
2022-09-04T15:48:55.835Z,101887.72
2022-09-04T15:51:36.074Z,101904.97
2022-09-04T15:54:26.980Z,101900.53
2022-09-04T15:57:02.902Z,101903.38
2022-09-04T15:59:43.432Z,101905.72
2022-09-04T16:02:30.617Z,101905.91
2022-09-04T16:05:06.091Z,101906.41
2022-09-04T16:07:45.443Z,101904.50
2022-09-04T16:10:20.538Z,101912.81
2022-09-04T16:12:56.565Z,101909.00
2022-09-04T16:15:26.922Z,101891.13
2022-09-04T16:17:55.507Z,101894.34
2022-09-04T16:20:33.200Z,101902.94
2022-09-04T16:23:04.284Z,101900.28
2022-09-04T16:25:32.674Z,101902.00
2022-09-04T16:28:03.579Z,101897.25
2022-09-04T16:30:38.152Z,101907.41
2022-09-04T16:33:12.923Z,101910.09
2022-09-04T16:35:50.929Z,101893.81
2022-09-04T16:38:24.219Z,101912.47
2022-09-04T16:40:56.111Z,101911.09
2022-09-04T16:43:26.678Z,101913.72
2022-09-04T16:46:29.450Z,101902.34
2022-09-04T16:49:03.291Z,101885.22
2022-09-04T16:51:40.995Z,101914.81
2022-09-04T16:54:17.826Z,101901.00
2022-09-04T16:56:50.187Z,101917.59
2022-09-04T16:59:27.597Z,101915.63
2022-09-04T17:02:01.678Z,101912.66
2022-09-04T17:04:39.731Z,101919.75
2022-09-04T17:07:16.756Z,101914.81
2022-09-04T17:09:55.100Z,101903.94
2022-09-04T17:12:30.564Z,101916.34
2022-09-04T17:15:09.756Z,101883.84
2022-09-04T17:17:42.059Z,101918.06
2022-09-04T17:20:12.625Z,101916.09
2022-09-04T17:27:56.932Z,101920.75
2022-09-04T17:29:11.130Z,101922.19
2022-09-04T17:29:19.622Z,101914.28
2022-09-04T17:31:49.722Z,101929.78
2022-09-04T17:40:36.664Z,101916.03
2022-09-04T17:40:38.086Z,101928.91
2022-09-04T17:40:56.728Z,101913.88
2022-09-04T17:43:24.243Z,101905.25
2022-09-04T17:46:06.960Z,101927.44
2022-09-04T17:48:40.846Z,101930.56
2022-09-04T17:51:07.770Z,101914.84
2022-09-04T17:53:38.542Z,101929.66
2022-09-04T17:56:14.174Z,101923.19
2022-09-04T17:58:49.341Z,101935.44
2022-09-04T18:01:22.530Z,101934.97
2022-09-04T18:04:21.829Z,101942.03
2022-09-04T18:06:57.848Z,101943.09
2022-09-04T18:09:32.112Z,101922.78
2022-09-04T18:12:14.040Z,101872.81
2022-09-04T18:15:18.397Z,101859.56
2022-09-04T18:18:10.254Z,101858.63
2022-09-04T18:20:51.616Z,101907.56
2022-09-04T18:23:52.358Z,101969.97
2022-09-04T18:26:27.972Z,101913.59
2022-09-04T18:30:53.271Z,101897.75
2022-09-04T18:37:10.234Z,101959.06
2022-09-04T18:37:24.421Z,101874.50
2022-09-04T18:38:15.905Z,101814.44
2022-09-04T18:44:44.536Z,101964.59
2022-09-04T18:50:35.601Z,101905.38
2022-09-04T18:50:40.194Z,101989.06
2022-09-04T18:50:43.189Z,101990.09
2022-09-04T18:52:13.991Z,101951.34
2022-09-04T18:54:47.609Z,101890.44
2022-09-04T18:57:27.273Z,101959.81
2022-09-04T19:00:08.807Z,101909.47
2022-09-04T19:02:53.142Z,102007.66
2022-09-04T19:05:36.472Z,101964.63
2022-09-04T19:08:19.899Z,101908.53
2022-09-04T19:10:54.052Z,101924.56
2022-09-04T19:13:27.501Z,102005.59
2022-09-04T19:16:09.963Z,101882.09
2022-09-04T19:18:53.365Z,101886.28
2022-09-04T19:21:31.796Z,101990.56
2022-09-04T19:24:10.587Z,101944.13
2022-09-04T19:26:43.103Z,102012.56
2022-09-04T19:29:20.693Z,101956.84
2022-09-04T19:31:54.586Z,102003.06
2022-09-04T19:34:30.717Z,101907.19
2022-09-04T19:37:30.168Z,102006.53
2022-09-04T19:45:56.803Z,101928.84
2022-09-04T19:46:11.287Z,101965.34
2022-09-04T19:46:14.473Z,101919.94
2022-09-04T19:48:58.610Z,101988.22
2022-09-04T19:59:57.805Z,102005.19
2022-09-04T20:02:53.641Z,102022.09
2022-09-04T20:05:50.485Z,102024.38
2022-09-04T20:08:27.852Z,101976.03
2022-09-04T20:11:01.664Z,101918.16
2022-09-04T20:13:35.140Z,101907.81
2022-09-04T20:16:17.076Z,102011.75
2022-09-04T20:18:54.592Z,101933.09
2022-09-04T20:21:25.541Z,101965.88
2022-09-04T20:24:01.788Z,101990.19
2022-09-04T20:26:38.205Z,102021.03
2022-09-04T20:29:18.874Z,101960.69
2022-09-04T20:32:02.287Z,102032.88
2022-09-04T20:34:43.567Z,102031.44
2022-09-04T20:37:30.643Z,102023.31
2022-09-04T20:40:07.522Z,101934.94
2022-09-04T20:42:41.434Z,101990.22
2022-09-04T20:48:44.275Z,101999.50
2022-09-04T20:52:51.517Z,102028.56
2022-09-04T20:52:54.417Z,102022.41
2022-09-04T20:54:28.794Z,101982.63
2022-09-04T21:00:31.407Z,102003.88
2022-09-04T21:03:17.499Z,101863.72
2022-09-04T21:03:17.779Z,101900.19
2022-09-04T21:06:06.994Z,102018.97
2022-09-04T21:08:43.363Z,101979.22
2022-09-04T21:11:39.165Z,102034.06
2022-09-04T21:14:11.021Z,102033.09
2022-09-04T21:16:54.120Z,101914.25
2022-09-04T21:19:41.947Z,102008.41
2022-09-04T21:22:33.247Z,101910.84
2022-09-04T21:25:31.621Z,102016.97
2022-09-04T21:28:36.825Z,101976.06
2022-09-04T21:31:30.846Z,102046.22
2022-09-04T21:34:16.978Z,101987.06
2022-09-04T21:36:49.650Z,102024.88
2022-09-04T21:39:58.589Z,102055.09
2022-09-04T21:42:55.240Z,102032.50
2022-09-04T21:45:41.801Z,102060.72
2022-09-04T21:48:33.423Z,102059.72
2022-09-04T21:51:28.857Z,102058.25
2022-09-04T21:54:38.328Z,102003.16
2022-09-04T22:02:37.645Z,102060.63
2022-09-04T22:02:37.962Z,102033.97
2022-09-04T22:04:18.546Z,102063.69
2022-09-04T22:11:06.637Z,102048.38
2022-09-04T22:13:30.042Z,101967.41
2022-09-04T22:13:39.071Z,102054.69
2022-09-04T22:16:19.004Z,102072.66
2022-09-04T22:19:16.785Z,102046.50
2022-09-04T22:22:03.378Z,102069.56
2022-09-04T22:25:04.356Z,102070.19
2022-09-04T22:28:14.523Z,101988.25
2022-09-04T22:31:02.342Z,102065.47
2022-09-04T22:34:14.951Z,102071.41
2022-09-04T22:37:14.472Z,101985.06
2022-09-04T22:40:09.926Z,102071.22
2022-09-04T22:42:44.909Z,101941.78
2022-09-04T22:56:24.699Z,102034.06
2022-09-04T22:59:27.730Z,101977.59
2022-09-04T23:02:30.687Z,102052.69
2022-09-04T23:05:30.212Z,102058.44
2022-09-04T23:13:45.050Z,102071.94
2022-09-04T23:13:56.886Z,102052.56
2022-09-04T23:14:49.347Z,102034.16
2022-09-04T23:17:32.321Z,101937.22
2022-09-04T23:26:33.492Z,101989.38
2022-09-04T23:26:48.843Z,102070.81
2022-09-04T23:27:00.234Z,102062.69
2022-09-04T23:30:02.927Z,102067.69
2022-09-04T23:32:49.881Z,102062.41
2022-09-04T23:35:31.211Z,102065.69
2022-09-04T23:38:17.970Z,101984.44
2022-09-04T23:40:52.091Z,102057.03
2022-09-04T23:44:10.108Z,102036.28
2022-09-04T23:46:59.855Z,102001.31
2022-09-04T23:49:54.722Z,101967.38
2022-09-04T23:52:31.584Z,102033.84
2022-09-04T23:55:15.693Z,102029.38
2022-09-04T23:57:50.305Z,101915.72
